Time;durP1;ratioP1;P1;durP2;ratioP2;P2;SDS_P1;SDS_P2;PMS_P1;PMS_P2;Temp;Humidity;BMP_temperature;BMP_pressure;BME280_temperature;BME280_humidity;BME280_pressure;Samples;Min_cycle;Max_cycle;Signal;HPM_P1;HPM_P2
2022/06/11 00:02:36;;;;;;;2.83;2.47;;;19.70;30.20;;;;;;10556578;27;20631;-74
2022/06/11 00:07:40;;;;;;;3.57;2.73;;;19.60;30.00;;;;;;10562229;28;20235;-74
2022/06/11 00:12:44;;;;;;;2.40;2.20;;;19.50;30.00;;;;;;10551544;27;20247;-74
2022/06/11 00:17:48;;;;;;;3.07;2.73;;;19.30;30.30;;;;;;10554911;27;20233;-74
2022/06/11 00:22:51;;;;;;;2.60;2.40;;;19.20;30.20;;;;;;10559101;28;20226;-74
2022/06/11 00:27:56;;;;;;;2.77;2.50;;;19.20;30.30;;;;;;10557703;28;20692;-74
2022/06/11 00:32:59;;;;;;;2.97;2.50;;;19.10;30.70;;;;;;10558235;28;20271;-74
2022/06/11 00:38:03;;;;;;;2.33;2.13;;;19.10;30.40;;;;;;10510607;28;20228;-74
2022/06/11 00:43:08;;;;;;;2.57;2.37;;;19.10;30.70;;;;;;10515666;28;20222;-74
2022/06/11 00:48:16;;;;;;;2.53;2.33;;;19.10;31.40;;;;;;10513636;28;20232;-74
2022/06/11 00:53:31;;;;;;;2.30;2.20;;;19.10;31.10;;;;;;10515033;28;20237;-74
2022/06/11 00:58:40;;;;;;;3.33;2.60;;;19.00;31.10;;;;;;10509583;28;20239;-74
2022/06/11 01:03:46;;;;;;;2.30;2.20;;;19.00;31.60;;;;;;10508932;28;20232;-74
2022/06/11 01:09:01;;;;;;;3.90;2.93;;;19.00;31.30;;;;;;10508067;28;20606;-74
2022/06/11 01:14:17;;;;;;;2.90;2.70;;;18.90;32.00;;;;;;10533999;28;20224;-74
2022/06/11 01:19:41;;;;;;;4.10;3.37;;;18.80;31.80;;;;;;10552420;27;20227;-74
2022/06/11 01:24:55;;;;;;;3.17;2.67;;;18.60;32.00;;;;;;10554459;27;20226;-74
2022/06/11 01:30:01;;;;;;;4.97;3.00;;;18.50;32.00;;;;;;10559837;27;20233;-74
2022/06/11 01:35:16;;;;;;;2.90;2.70;;;18.30;31.80;;;;;;10545855;28;20230;-74
2022/06/11 01:40:33;;;;;;;2.63;2.43;;;18.20;32.60;;;;;;10555813;28;20221;-74
2022/06/11 01:45:38;;;;;;;2.53;2.37;;;18.00;32.60;;;;;;10552798;27;20237;-74
2022/06/11 01:50:45;;;;;;;4.33;2.73;;;18.00;32.30;;;;;;10551454;28;20238;-74
2022/06/11 01:56:03;;;;;;;2.83;2.60;;;18.00;32.50;;;;;;10543146;28;20231;-74
2022/06/11 02:01:18;;;;;;;3.40;2.73;;;18.00;33.10;;;;;;10546976;27;20687;-74
2022/06/11 02:06:35;;;;;;;5.07;2.70;;;18.00;33.30;;;;;;10554354;27;20257;-74
2022/06/11 02:11:42;;;;;;;2.67;2.43;;;18.00;33.00;;;;;;10554501;27;20277;-74
2022/06/11 02:16:51;;;;;;;2.70;2.27;;;17.90;32.50;;;;;;10555305;27;21056;-74
2022/06/11 02:22:00;;;;;;;2.60;2.40;;;17.90;32.90;;;;;;10554583;27;20226;-74
2022/06/11 02:27:10;;;;;;;3.00;2.70;;;17.90;32.90;;;;;;10548363;28;20223;-74
2022/06/11 02:32:17;;;;;;;2.40;2.20;;;17.90;33.00;;;;;;10549636;28;20761;-74
2022/06/11 02:37:23;;;;;;;2.80;2.60;;;17.90;32.90;;;;;;10551677;28;20234;-74
2022/06/11 02:42:27;;;;;;;2.67;2.47;;;17.90;33.40;;;;;;10549792;28;20230;-74
2022/06/11 02:47:31;;;;;;;2.53;2.37;;;17.80;32.40;;;;;;10564203;27;20231;-74
2022/06/11 02:52:37;;;;;;;3.63;2.57;;;17.80;32.90;;;;;;10559510;28;20235;-74
2022/06/11 02:57:40;;;;;;;3.17;2.40;;;17.80;32.70;;;;;;10566149;27;20219;-74
2022/06/11 03:02:48;;;;;;;2.97;2.40;;;17.80;32.40;;;;;;10564977;28;20306;-74
2022/06/11 03:07:52;;;;;;;2.57;2.37;;;17.80;32.90;;;;;;10562705;28;20223;-74
2022/06/11 03:12:55;;;;;;;2.60;2.40;;;17.80;32.40;;;;;;10560760;28;20612;-74
2022/06/11 03:18:00;;;;;;;4.23;2.47;;;17.70;32.50;;;;;;10560535;28;20212;-74
2022/06/11 03:23:03;;;;;;;2.47;2.37;;;17.70;32.90;;;;;;10544547;28;20215;-74
2022/06/11 03:28:08;;;;;;;2.80;2.60;;;17.70;32.50;;;;;;10558259;28;20224;-74
2022/06/11 03:33:13;;;;;;;2.53;2.33;;;17.60;33.50;;;;;;10560265;28;20241;-74
2022/06/11 03:38:17;;;;;;;3.03;2.10;;;17.60;33.00;;;;;;10557988;28;20609;-74
2022/06/11 03:43:20;;;;;;;2.73;2.53;;;17.50;32.60;;;;;;10561837;27;20219;-74
2022/06/11 03:48:25;;;;;;;4.43;2.60;;;17.50;32.80;;;;;;10530614;28;20227;-75
2022/06/11 03:53:30;;;;;;;3.20;2.50;;;17.40;33.50;;;;;;10511711;28;20712;-74
2022/06/11 03:58:35;;;;;;;2.50;2.30;;;17.30;33.50;;;;;;10514454;28;20224;-74
2022/06/11 04:03:39;;;;;;;3.17;2.60;;;17.20;33.80;;;;;;10513248;28;20601;-75
2022/06/11 04:08:43;;;;;;;2.87;2.67;;;17.10;34.00;;;;;;10516404;28;20310;-75
2022/06/11 04:13:47;;;;;;;3.00;2.80;;;17.00;33.90;;;;;;10513138;28;20747;-75
2022/06/11 04:18:53;;;;;;;2.93;2.73;;;17.00;33.90;;;;;;10519835;28;20938;-75
2022/06/11 04:23:58;;;;;;;3.37;3.07;;;16.90;34.50;;;;;;10516537;28;20604;-75
2022/06/11 04:29:02;;;;;;;3.20;3.00;;;16.90;34.60;;;;;;10516894;28;20315;-75
2022/06/11 04:34:06;;;;;;;3.83;3.40;;;16.90;34.10;;;;;;10514918;28;20606;-75
2022/06/11 04:39:10;;;;;;;3.50;3.20;;;16.90;34.90;;;;;;10509141;28;20228;-75
2022/06/11 04:44:14;;;;;;;3.30;3.10;;;16.80;35.00;;;;;;10515504;28;20238;-75
2022/06/11 04:49:19;;;;;;;3.47;3.20;;;16.80;35.00;;;;;;10519697;28;20236;-75
2022/06/11 04:54:22;;;;;;;4.40;3.40;;;16.80;35.80;;;;;;10515836;28;20236;-77
2022/06/11 04:59:25;;;;;;;3.37;3.07;;;16.80;35.60;;;;;;10518359;28;20226;-75
2022/06/11 05:04:31;;;;;;;3.77;3.37;;;16.80;35.80;;;;;;10518148;28;20220;-75
2022/06/11 05:09:34;;;;;;;4.30;3.70;;;16.90;37.00;;;;;;10508206;28;20219;-75
2022/06/11 05:14:38;;;;;;;6.23;3.90;;;17.10;36.60;;;;;;10513653;28;20239;-74
2022/06/11 05:19:42;;;;;;;3.70;3.30;;;17.20;36.70;;;;;;10504705;28;20220;-74
2022/06/11 05:24:45;;;;;;;3.67;3.43;;;17.40;37.30;;;;;;10512936;28;20227;-74
2022/06/11 05:29:52;;;;;;;4.00;3.60;;;17.50;36.90;;;;;;10508665;28;20234;-74
2022/06/11 05:34:58;;;;;;;4.20;3.80;;;17.60;37.60;;;;;;10511436;28;20215;-74
2022/06/11 05:40:01;;;;;;;3.73;3.50;;;17.80;38.20;;;;;;10515360;28;20230;-74
2022/06/11 05:45:05;;;;;;;3.57;3.27;;;18.00;37.50;;;;;;10504396;28;20250;-74
2022/06/11 05:50:11;;;;;;;4.20;3.80;;;18.10;37.60;;;;;;10514945;28;20223;-74
2022/06/11 05:55:20;;;;;;;4.20;3.80;;;18.30;38.50;;;;;;10509206;28;20228;-74
2022/06/11 06:00:25;;;;;;;3.93;3.63;;;18.50;38.40;;;;;;10507014;28;20708;-74
2022/06/11 06:05:31;;;;;;;4.10;3.80;;;18.70;38.00;;;;;;10513337;28;20219;-74
2022/06/11 06:10:35;;;;;;;4.17;3.87;;;18.90;38.60;;;;;;10505811;28;20994;-74
2022/06/11 06:15:38;;;;;;;4.40;4.00;;;19.10;38.10;;;;;;10505365;28;20225;-74
2022/06/11 06:20:43;;;;;;;3.30;3.10;;;19.30;38.10;;;;;;10508435;28;20227;-74
2022/06/11 06:25:46;;;;;;;3.63;3.43;;;19.50;38.10;;;;;;10519501;28;20235;-74
2022/06/11 06:30:49;;;;;;;4.17;3.83;;;19.80;37.90;;;;;;10541896;28;20231;-75
2022/06/11 06:35:54;;;;;;;3.60;3.30;;;20.00;38.00;;;;;;10556800;28;20223;-75
2022/06/11 06:40:57;;;;;;;3.10;2.90;;;20.20;38.00;;;;;;10560609;28;20235;-75
2022/06/11 06:46:01;;;;;;;3.20;2.90;;;20.50;37.50;;;;;;10544128;27;20238;-75
2022/06/11 06:51:06;;;;;;;2.90;2.70;;;20.70;37.20;;;;;;10536275;27;20696;-74
2022/06/11 06:56:10;;;;;;;3.30;3.00;;;21.00;36.80;;;;;;10552759;28;20238;-75
2022/06/11 07:01:13;;;;;;;3.03;2.73;;;21.20;36.20;;;;;;10549769;28;20228;-75
2022/06/11 07:06:17;;;;;;;3.00;2.80;;;21.40;35.90;;;;;;10562625;28;20227;-74
2022/06/11 07:11:21;;;;;;;2.63;2.43;;;21.60;35.60;;;;;;10556702;28;20246;-74
2022/06/11 07:16:29;;;;;;;2.60;2.40;;;21.80;35.30;;;;;;10561450;27;20237;-75
2022/06/11 07:21:38;;;;;;;3.57;2.20;;;22.00;35.20;;;;;;10511114;28;20215;-74
2022/06/11 07:26:45;;;;;;;2.33;2.13;;;22.20;34.30;;;;;;10510148;28;20225;-74
2022/06/11 07:31:51;;;;;;;2.50;2.30;;;22.40;34.50;;;;;;10515579;28;20227;-74
2022/06/11 07:36:59;;;;;;;2.97;2.70;;;22.60;34.10;;;;;;10542807;28;20234;-74
2022/06/11 07:42:02;;;;;;;2.50;2.30;;;22.80;33.50;;;;;;10540538;28;20699;-74
2022/06/11 07:47:07;;;;;;;2.60;2.40;;;23.00;33.80;;;;;;10549105;28;20365;-75
2022/06/11 07:52:12;;;;;;;2.03;1.93;;;23.10;33.20;;;;;;10551773;28;20970;-75
2022/06/11 07:57:15;;;;;;;2.10;2.00;;;23.30;32.80;;;;;;10550324;28;20230;-74
2022/06/11 08:02:18;;;;;;;2.10;2.00;;;23.50;33.00;;;;;;10547945;28;20596;-75
2022/06/11 08:07:25;;;;;;;2.00;1.90;;;23.70;33.00;;;;;;10549157;28;21738;-75
2022/06/11 08:12:28;;;;;;;2.20;2.00;;;23.90;32.00;;;;;;10559014;27;20229;-74
2022/06/11 08:17:32;;;;;;;2.30;2.10;;;24.10;32.60;;;;;;10550096;28;20238;-75
2022/06/11 08:22:37;;;;;;;2.70;2.37;;;24.30;31.80;;;;;;10517902;28;20220;-75
2022/06/11 08:27:40;;;;;;;2.47;2.03;;;24.50;31.20;;;;;;10507584;28;20234;-75
2022/06/11 08:32:44;;;;;;;3.50;2.23;;;24.70;31.90;;;;;;10511097;28;20303;-75
2022/06/11 08:37:48;;;;;;;2.30;2.10;;;24.80;31.40;;;;;;10532712;28;20795;-75
2022/06/11 08:42:58;;;;;;;2.23;2.03;;;25.00;30.90;;;;;;10548883;27;20219;-74
2022/06/11 08:48:10;;;;;;;2.70;2.10;;;25.20;30.10;;;;;;10547690;28;20229;-75
2022/06/11 08:53:16;;;;;;;2.73;1.90;;;25.50;29.50;;;;;;10547988;27;20238;-75
2022/06/11 08:58:32;;;;;;;2.10;2.00;;;25.70;29.50;;;;;;10550275;28;20246;-75
2022/06/11 09:03:48;;;;;;;1.87;1.77;;;26.00;29.20;;;;;;10542580;28;20227;-75
2022/06/11 09:09:19;;;;;;;1.90;1.80;;;26.30;29.20;;;;;;10501300;28;20686;-75
2022/06/11 09:14:47;;;;;;;1.80;1.70;;;26.60;28.00;;;;;;10493924;28;20718;-75
2022/06/11 09:20:07;;;;;;;1.87;1.77;;;26.80;28.40;;;;;;10496799;28;20243;-75
2022/06/11 09:25:26;;;;;;;3.47;2.10;;;27.00;27.80;;;;;;10541666;28;20218;-75
2022/06/11 09:30:37;;;;;;;2.03;1.93;;;27.20;27.90;;;;;;10537104;28;20812;-75
2022/06/11 09:35:44;;;;;;;2.20;1.80;;;27.30;27.40;;;;;;10545879;28;20224;-75
2022/06/11 09:40:54;;;;;;;2.90;1.90;;;27.40;27.10;;;;;;10547821;28;20606;-75
2022/06/11 09:46:07;;;;;;;2.00;1.90;;;27.50;26.10;;;;;;10543192;27;20231;-75
2022/06/11 09:51:21;;;;;;;1.90;1.80;;;27.50;25.90;;;;;;10541890;28;20220;-75
2022/06/11 09:56:34;;;;;;;1.73;1.60;;;27.50;25.80;;;;;;10540607;28;20231;-75
2022/06/11 10:01:44;;;;;;;1.83;1.73;;;27.50;25.80;;;;;;10541364;28;20233;-75
2022/06/11 10:06:52;;;;;;;2.17;1.90;;;27.60;25.70;;;;;;10545719;28;20223;-75
2022/06/11 10:12:04;;;;;;;1.60;1.50;;;27.70;25.10;;;;;;10549121;28;20242;-75
2022/06/11 10:17:13;;;;;;;2.17;1.60;;;27.80;24.80;;;;;;10535331;28;20941;-75
2022/06/11 10:22:19;;;;;;;2.73;1.77;;;28.00;25.20;;;;;;10548381;28;20219;-75
2022/06/11 10:27:26;;;;;;;2.23;1.70;;;28.20;24.90;;;;;;10540610;28;20661;-74
2022/06/11 10:32:36;;;;;;;1.50;1.40;;;28.30;24.50;;;;;;10542529;28;20663;-75
2022/06/11 10:37:46;;;;;;;1.73;1.50;;;28.40;24.40;;;;;;10541173;28;20770;-75
2022/06/11 10:43:00;;;;;;;1.70;1.57;;;28.50;24.00;;;;;;10538906;27;20223;-75
2022/06/11 10:48:07;;;;;;;2.27;1.87;;;28.60;23.50;;;;;;10540553;28;20215;-75
2022/06/11 10:53:18;;;;;;;1.80;1.60;;;28.80;25.00;;;;;;10541017;28;20284;-75
2022/06/11 10:58:29;;;;;;;1.63;1.53;;;29.00;24.20;;;;;;10543644;28;20235;-75
2022/06/11 11:03:40;;;;;;;2.80;1.70;;;29.10;21.80;;;;;;10533418;28;20708;-75
2022/06/11 11:09:04;;;;;;;1.70;1.47;;;29.30;22.40;;;;;;10545897;28;20295;-75
2022/06/11 11:14:15;;;;;;;1.80;1.70;;;29.40;22.70;;;;;;10541767;28;20260;-75
2022/06/11 11:19:23;;;;;;;1.60;1.50;;;29.40;22.20;;;;;;10544920;28;20229;-75
2022/06/11 11:24:33;;;;;;;1.80;1.70;;;29.50;22.40;;;;;;10555937;27;20231;-75
2022/06/11 11:29:40;;;;;;;1.60;1.50;;;29.60;21.60;;;;;;10555970;27;20883;-75
2022/06/11 11:34:47;;;;;;;1.60;1.50;;;29.70;21.50;;;;;;10509400;28;20231;-75
2022/06/11 11:39:53;;;;;;;1.47;1.40;;;29.70;21.70;;;;;;10513847;28;20232;-75
2022/06/11 11:44:58;;;;;;;1.93;1.60;;;29.70;22.20;;;;;;10541196;27;20232;-75
2022/06/11 11:50:08;;;;;;;1.60;1.50;;;29.80;21.60;;;;;;10545716;28;20230;-75
2022/06/11 11:55:18;;;;;;;1.60;1.50;;;29.70;20.90;;;;;;10550070;27;21148;-75
2022/06/11 12:00:31;;;;;;;1.70;1.60;;;29.60;20.90;;;;;;10549720;28;20238;-75
2022/06/11 12:05:39;;;;;;;1.50;1.40;;;29.60;20.20;;;;;;10550842;28;20235;-75
2022/06/11 12:10:48;;;;;;;1.60;1.50;;;29.50;20.10;;;;;;10550694;28;20223;-75
2022/06/11 12:15:58;;;;;;;2.23;1.50;;;29.50;19.70;;;;;;10548504;27;20231;-75
2022/06/11 12:21:06;;;;;;;1.63;1.53;;;29.50;19.40;;;;;;10498901;28;20607;-74
2022/06/11 12:26:16;;;;;;;1.53;1.30;;;29.50;19.90;;;;;;10548091;28;20230;-75
2022/06/11 12:31:22;;;;;;;2.37;1.80;;;29.50;19.70;;;;;;10547310;27;20600;-75
2022/06/11 12:36:50;;;;;;;1.60;1.50;;;29.50;20.30;;;;;;10515461;28;20280;-74
2022/06/11 12:41:59;;;;;;;1.50;1.40;;;29.40;20.50;;;;;;10503537;28;20227;-75
2022/06/11 12:47:18;;;;;;;1.50;1.40;;;29.30;19.90;;;;;;10499045;28;20701;-74
2022/06/11 12:52:27;;;;;;;2.70;1.70;;;29.40;19.30;;;;;;10500771;28;20220;-75
2022/06/11 12:57:46;;;;;;;1.53;1.37;;;29.50;20.90;;;;;;10503427;28;20237;-75
2022/06/11 13:03:02;;;;;;;1.67;1.57;;;29.60;19.20;;;;;;10504563;28;20232;-75
2022/06/11 13:08:27;;;;;;;1.60;1.50;;;29.70;19.40;;;;;;10506761;28;20228;-75
2022/06/11 13:13:49;;;;;;;1.50;1.30;;;29.80;19.50;;;;;;10499822;28;20230;-75
2022/06/11 13:19:26;;;;;;;1.50;1.40;;;29.80;19.10;;;;;;10497906;28;20236;-75
2022/06/11 13:24:41;;;;;;;1.50;1.40;;;29.90;19.00;;;;;;10497565;28;20232;-75
2022/06/11 13:29:59;;;;;;;1.47;1.47;;;30.10;18.80;;;;;;10492422;28;20691;-75
2022/06/11 13:35:26;;;;;;;1.50;1.40;;;30.10;18.30;;;;;;10540485;28;20609;-74
2022/06/11 13:40:40;;;;;;;2.60;1.50;;;30.00;18.10;;;;;;10519323;28;20219;-75
2022/06/11 13:45:56;;;;;;;2.77;1.37;;;30.00;16.90;;;;;;10496399;28;20228;-75
2022/06/11 13:51:15;;;;;;;1.50;1.40;;;29.90;18.30;;;;;;10500627;28;20719;-74
2022/06/11 13:56:29;;;;;;;1.30;1.20;;;29.80;18.60;;;;;;10536588;28;20218;-74
2022/06/11 14:01:50;;;;;;;1.30;1.20;;;29.80;18.10;;;;;;10543542;28;20313;-75
2022/06/11 14:06:59;;;;;;;1.50;1.40;;;29.80;18.00;;;;;;10546049;28;20227;-75
2022/06/11 14:12:06;;;;;;;1.83;1.40;;;29.80;18.80;;;;;;10538068;28;20226;-74
2022/06/11 14:17:45;;;;;;;2.00;1.50;;;29.80;18.70;;;;;;10535628;28;20237;-75
2022/06/11 14:22:53;;;;;;;1.20;1.20;;;29.90;18.70;;;;;;10540360;28;20219;-75
2022/06/11 14:27:56;;;;;;;1.40;1.40;;;30.00;18.50;;;;;;10541527;28;20974;-75
2022/06/11 14:33:03;;;;;;;1.60;1.50;;;30.20;18.80;;;;;;10546968;28;20596;-75
2022/06/11 14:38:32;;;;;;;2.00;1.27;;;30.30;18.00;;;;;;10535062;28;20622;-75
2022/06/11 14:44:17;;;;;;;1.43;1.33;;;30.30;18.10;;;;;;10556127;28;20219;-75
2022/06/11 14:49:46;;;;;;;1.40;1.30;;;30.40;17.80;;;;;;10486192;28;20231;-75
2022/06/11 14:54:59;;;;;;;1.30;1.30;;;30.50;17.90;;;;;;10516018;28;20730;-75
2022/06/11 15:00:17;;;;;;;1.40;1.30;;;30.60;17.40;;;;;;10516425;28;20227;-75
2022/06/11 15:05:35;;;;;;;1.40;1.20;;;30.60;17.20;;;;;;10518887;28;20255;-75
2022/06/11 15:10:44;;;;;;;1.40;1.30;;;30.70;16.90;;;;;;10523312;28;20234;-75
2022/06/11 15:15:56;;;;;;;1.53;1.37;;;30.70;17.10;;;;;;10512211;28;20228;-75
2022/06/11 15:21:01;;;;;;;1.77;1.40;;;30.70;17.00;;;;;;10514879;28;20224;-75
2022/06/11 15:26:11;;;;;;;1.50;1.40;;;30.70;17.50;;;;;;10521410;28;20333;-75
2022/06/11 15:31:15;;;;;;;1.47;1.37;;;30.70;16.60;;;;;;10523375;28;20635;-75
2022/06/11 15:36:21;;;;;;;1.60;1.50;;;30.70;16.90;;;;;;10516803;28;20660;-75
2022/06/11 15:41:30;;;;;;;1.40;1.33;;;30.70;16.90;;;;;;10521354;28;20840;-75
2022/06/11 15:46:37;;;;;;;1.60;1.50;;;30.70;16.20;;;;;;10517910;28;20224;-75
2022/06/11 15:51:40;;;;;;;1.50;1.40;;;30.70;16.50;;;;;;10514276;28;20219;-75
2022/06/11 15:56:45;;;;;;;1.60;1.50;;;30.70;17.20;;;;;;10516052;28;20226;-75
2022/06/11 16:01:51;;;;;;;1.43;1.30;;;30.60;16.20;;;;;;10513872;28;20611;-75
2022/06/11 16:07:02;;;;;;;1.40;1.30;;;30.70;16.60;;;;;;10515754;28;20761;-75
2022/06/11 16:12:20;;;;;;;1.57;1.47;;;30.70;16.60;;;;;;10515145;28;20254;-75
2022/06/11 16:17:27;;;;;;;1.67;1.57;;;30.70;16.20;;;;;;10516229;28;20230;-75
2022/06/11 16:22:38;;;;;;;3.10;1.80;;;30.70;16.20;;;;;;10510532;28;20224;-75
2022/06/11 16:27:47;;;;;;;1.60;1.50;;;30.60;16.50;;;;;;10512393;28;20987;-75
2022/06/11 16:32:52;;;;;;;1.50;1.40;;;30.60;15.90;;;;;;10513308;28;20222;-75
2022/06/11 16:37:56;;;;;;;1.53;1.43;;;30.50;16.50;;;;;;10518919;28;20452;-75
2022/06/11 16:43:02;;;;;;;1.70;1.60;;;30.60;16.70;;;;;;10520064;28;20226;-75
2022/06/11 16:48:19;;;;;;;1.60;1.50;;;30.60;16.50;;;;;;10510614;28;20220;-75
2022/06/11 16:59:04;;;;;;;1.87;1.60;;;30.60;16.30;;;;;;10513192;28;20228;-75
2022/06/11 17:04:21;;;;;;;1.60;1.50;;;30.50;16.70;;;;;;10512317;28;20223;-75
2022/06/11 17:09:31;;;;;;;2.07;1.43;;;30.40;16.70;;;;;;10505753;28;20223;-75
2022/06/11 17:14:35;;;;;;;1.87;1.70;;;30.30;16.50;;;;;;10515578;28;20223;-75
2022/06/11 17:19:39;;;;;;;1.50;1.40;;;30.30;16.60;;;;;;10505838;28;20235;-75
2022/06/11 17:24:43;;;;;;;1.80;1.70;;;30.30;17.00;;;;;;10519012;28;20744;-75
2022/06/11 17:29:48;;;;;;;1.50;1.40;;;30.30;16.90;;;;;;10514531;28;20227;-75
2022/06/11 17:34:53;;;;;;;1.83;1.67;;;30.30;16.60;;;;;;10516521;28;20242;-75
2022/06/11 17:39:58;;;;;;;1.70;1.60;;;30.30;16.80;;;;;;10515732;28;20228;-75
2022/06/11 17:45:03;;;;;;;2.10;1.90;;;30.30;17.00;;;;;;10512228;28;20231;-75
2022/06/11 17:50:06;;;;;;;1.60;1.50;;;30.30;17.10;;;;;;10505840;28;20684;-75
2022/06/11 17:55:13;;;;;;;1.60;1.50;;;30.30;17.00;;;;;;10509646;28;20228;-75
2022/06/11 18:00:21;;;;;;;1.87;1.70;;;30.30;16.70;;;;;;10505044;28;20256;-75
2022/06/11 18:05:28;;;;;;;1.60;1.50;;;30.20;16.90;;;;;;10517514;28;20238;-75
2022/06/11 18:10:35;;;;;;;2.13;2.03;;;30.10;16.60;;;;;;10508933;28;20277;-75
2022/06/11 18:15:45;;;;;;;3.13;2.10;;;30.10;17.30;;;;;;10509462;28;20227;-75
2022/06/11 18:20:49;;;;;;;2.07;1.70;;;29.90;17.50;;;;;;10514173;28;20715;-75
2022/06/11 18:25:53;;;;;;;2.97;2.77;;;29.90;17.90;;;;;;10520367;28;20239;-75
2022/06/11 18:30:58;;;;;;;3.50;3.10;;;29.80;18.20;;;;;;10511743;28;20224;-75
2022/06/11 18:36:02;;;;;;;2.33;2.13;;;29.70;18.80;;;;;;10509011;28;20231;-74
2022/06/11 18:41:05;;;;;;;1.80;1.70;;;29.50;18.80;;;;;;10513650;28;20310;-74
2022/06/11 18:46:10;;;;;;;1.60;1.43;;;29.50;19.10;;;;;;10506145;28;20724;-75
2022/06/11 18:51:13;;;;;;;1.60;1.50;;;29.30;19.40;;;;;;10507076;28;20230;-75
2022/06/11 18:56:17;;;;;;;2.00;1.30;;;29.20;19.50;;;;;;10504934;28;20232;-75
2022/06/11 19:01:22;;;;;;;1.47;1.37;;;29.00;19.50;;;;;;10509397;28;20224;-75
2022/06/11 19:06:25;;;;;;;1.90;1.60;;;28.90;19.90;;;;;;10517988;28;20239;-75
2022/06/11 19:11:28;;;;;;;3.10;2.37;;;28.80;20.00;;;;;;10510224;28;20228;-75
2022/06/11 19:16:33;;;;;;;1.97;1.87;;;28.70;20.10;;;;;;10508389;28;20234;-75
2022/06/11 19:21:36;;;;;;;1.90;1.70;;;28.50;20.30;;;;;;10500161;28;20232;-75
2022/06/11 19:26:40;;;;;;;1.80;1.70;;;28.30;20.30;;;;;;10508389;28;20229;-75
2022/06/11 19:31:44;;;;;;;1.40;1.30;;;28.10;20.10;;;;;;10516399;28;20228;-75
2022/06/11 19:36:51;;;;;;;1.90;1.60;;;28.00;20.10;;;;;;10512758;28;20224;-75
2022/06/11 19:41:56;;;;;;;1.90;1.80;;;27.90;20.60;;;;;;10513975;28;20219;-75
2022/06/11 19:47:01;;;;;;;1.63;1.53;;;27.70;20.70;;;;;;10512924;28;20917;-75
2022/06/11 19:52:05;;;;;;;1.93;1.50;;;27.60;21.00;;;;;;10516029;28;20231;-75
2022/06/11 19:57:09;;;;;;;1.70;1.60;;;27.60;21.10;;;;;;10522656;28;20222;-75
2022/06/11 20:02:13;;;;;;;1.77;1.67;;;27.40;21.10;;;;;;10515866;28;20795;-75
2022/06/11 20:07:17;;;;;;;2.10;1.93;;;27.20;21.50;;;;;;10515131;28;20224;-75
2022/06/11 20:12:21;;;;;;;2.90;2.20;;;27.00;21.60;;;;;;10509747;28;20234;-75
2022/06/11 20:17:25;;;;;;;2.60;2.40;;;26.60;21.70;;;;;;10511274;28;20241;-75
2022/06/11 20:22:28;;;;;;;2.53;2.30;;;26.30;22.40;;;;;;10520568;28;20696;-75
2022/06/11 20:27:32;;;;;;;2.97;2.67;;;26.00;22.50;;;;;;10521616;28;20231;-75
2022/06/11 20:32:36;;;;;;;3.00;2.40;;;25.70;22.90;;;;;;10514537;28;20735;-75
2022/06/11 20:37:42;;;;;;;2.80;2.40;;;25.40;23.60;;;;;;10515562;28;20226;-75
2022/06/11 20:42:45;;;;;;;2.73;2.27;;;25.10;23.60;;;;;;10525270;28;20235;-74
2022/06/11 20:47:50;;;;;;;2.07;1.97;;;24.90;23.80;;;;;;10554030;28;20226;-74
2022/06/11 20:52:54;;;;;;;2.20;2.10;;;24.80;24.60;;;;;;10547261;28;20227;-75
2022/06/11 20:57:57;;;;;;;2.47;2.27;;;24.70;24.20;;;;;;10555420;28;20223;-75
2022/06/11 21:03:01;;;;;;;3.37;2.30;;;24.60;24.40;;;;;;10558173;28;20250;-75
2022/06/11 21:13:27;;;;;;;2.60;2.40;;;24.40;24.80;;;;;;10554509;28;20234;-75
2022/06/11 21:18:32;;;;;;;2.37;2.10;;;24.30;25.00;;;;;;10562076;27;20225;-74
2022/06/11 21:23:35;;;;;;;2.23;2.10;;;24.30;25.30;;;;;;10560648;28;20227;-74
2022/06/11 21:28:38;;;;;;;2.40;2.23;;;24.20;25.10;;;;;;10563638;27;20234;-74
2022/06/11 21:33:43;;;;;;;2.23;2.13;;;24.10;25.30;;;;;;10535980;28;20223;-75
2022/06/11 21:38:46;;;;;;;2.33;2.13;;;24.00;25.60;;;;;;10523703;28;20232;-75
2022/06/11 21:43:56;;;;;;;2.50;2.40;;;23.90;25.30;;;;;;10566885;27;20269;-75
2022/06/11 21:49:01;;;;;;;2.57;2.37;;;23.90;25.40;;;;;;10530729;28;20576;-75
2022/06/11 21:54:06;;;;;;;4.10;2.30;;;23.80;26.10;;;;;;10527330;28;20310;-75
2022/06/11 21:59:09;;;;;;;2.83;2.63;;;23.80;26.00;;;;;;10551399;28;20242;-74
2022/06/11 22:04:15;;;;;;;2.60;2.40;;;23.70;25.90;;;;;;10548811;28;20253;-74
2022/06/11 22:09:19;;;;;;;2.90;2.70;;;23.60;26.40;;;;;;10546076;28;20234;-74
2022/06/11 22:14:25;;;;;;;2.67;2.47;;;23.60;26.10;;;;;;10551178;27;20271;-75
2022/06/11 22:19:30;;;;;;;3.10;2.80;;;23.50;26.50;;;;;;10551851;28;20227;-74
2022/06/11 22:24:36;;;;;;;2.60;2.40;;;23.50;26.60;;;;;;10559157;28;20226;-75
2022/06/11 22:29:40;;;;;;;2.77;2.57;;;23.40;26.50;;;;;;10546816;28;20254;-74
2022/06/11 22:34:45;;;;;;;2.90;2.70;;;23.40;26.50;;;;;;10541930;28;20227;-75
2022/06/11 22:39:48;;;;;;;2.63;2.43;;;23.30;27.20;;;;;;10508389;28;20230;-74
2022/06/11 22:44:51;;;;;;;3.00;2.70;;;23.30;26.70;;;;;;10505701;28;20235;-74
2022/06/11 22:49:56;;;;;;;3.07;2.77;;;23.20;26.60;;;;;;10530708;28;20219;-74
2022/06/11 22:54:59;;;;;;;3.43;3.13;;;23.20;27.30;;;;;;10540408;28;20226;-76
2022/06/11 23:00:03;;;;;;;3.30;3.00;;;23.10;26.90;;;;;;10548952;27;20230;-77
2022/06/11 23:05:11;;;;;;;3.87;3.50;;;23.10;26.90;;;;;;10549907;28;20234;-76
2022/06/11 23:10:14;;;;;;;3.50;3.20;;;22.90;27.30;;;;;;10557224;27;20249;-77
2022/06/11 23:15:18;;;;;;;4.33;3.30;;;22.80;27.30;;;;;;10553517;28;20738;-76
2022/06/11 23:20:23;;;;;;;3.30;3.03;;;22.80;27.20;;;;;;10557021;28;21738;-77
2022/06/11 23:25:28;;;;;;;3.63;3.10;;;22.60;27.10;;;;;;10562041;28;20255;-76
2022/06/11 23:30:31;;;;;;;3.00;2.70;;;22.50;27.00;;;;;;10557745;28;20942;-77
2022/06/11 23:35:37;;;;;;;3.63;3.33;;;22.30;26.90;;;;;;10550858;28;20227;-77
2022/06/11 23:40:48;;;;;;;4.37;3.17;;;22.20;27.60;;;;;;10552297;28;20227;-77
2022/06/11 23:45:51;;;;;;;3.30;3.00;;;22.10;27.90;;;;;;10551794;28;20233;-77
2022/06/11 23:50:59;;;;;;;3.60;3.30;;;22.00;27.70;;;;;;10555942;27;20791;-77
2022/06/11 23:56:02;;;;;;;4.73;3.57;;;21.90;28.20;;;;;;10550095;28;20275;-77
